sensor_id;sensor_type;location;lat;lon;timestamp;P1;durP1;ratioP1;P2;durP2;ratioP2
16133;SDS011;8172;45.018;5.972;2023-05-14T00:03:38;1.40;;;1.20;;
16133;SDS011;8172;45.018;5.972;2023-05-14T00:08:46;2.13;;;1.00;;
16133;SDS011;8172;45.018;5.972;2023-05-14T00:13:56;0.73;;;0.70;;
16133;SDS011;8172;45.018;5.972;2023-05-14T00:19:04;1.10;;;0.93;;
16133;SDS011;8172;45.018;5.972;2023-05-14T00:24:12;0.87;;;0.70;;
16133;SDS011;8172;45.018;5.972;2023-05-14T00:29:20;0.83;;;0.70;;
16133;SDS011;8172;45.018;5.972;2023-05-14T00:34:28;1.00;;;0.90;;
16133;SDS011;8172;45.018;5.972;2023-05-14T00:39:36;0.80;;;0.80;;
16133;SDS011;8172;45.018;5.972;2023-05-14T00:44:44;0.70;;;0.70;;
16133;SDS011;8172;45.018;5.972;2023-05-14T00:49:52;1.57;;;0.70;;
16133;SDS011;8172;45.018;5.972;2023-05-14T00:55:02;0.70;;;0.70;;
16133;SDS011;8172;45.018;5.972;2023-05-14T01:00:10;0.83;;;0.83;;
16133;SDS011;8172;45.018;5.972;2023-05-14T01:05:19;0.80;;;0.80;;
16133;SDS011;8172;45.018;5.972;2023-05-14T01:15:39;1.00;;;0.90;;
16133;SDS011;8172;45.018;5.972;2023-05-14T01:20:50;2.83;;;0.90;;
16133;SDS011;8172;45.018;5.972;2023-05-14T01:26:01;0.97;;;0.80;;
16133;SDS011;8172;45.018;5.972;2023-05-14T01:31:11;1.17;;;0.90;;
16133;SDS011;8172;45.018;5.972;2023-05-14T01:36:19;0.80;;;0.80;;
16133;SDS011;8172;45.018;5.972;2023-05-14T01:41:29;1.20;;;0.80;;
16133;SDS011;8172;45.018;5.972;2023-05-14T01:46:39;1.10;;;0.90;;
16133;SDS011;8172;45.018;5.972;2023-05-14T01:51:48;2.17;;;0.80;;
16133;SDS011;8172;45.018;5.972;2023-05-14T01:56:56;1.00;;;0.90;;
16133;SDS011;8172;45.018;5.972;2023-05-14T02:02:05;1.00;;;0.90;;
16133;SDS011;8172;45.018;5.972;2023-05-14T02:07:12;1.57;;;1.00;;
16133;SDS011;8172;45.018;5.972;2023-05-14T02:12:23;1.87;;;0.83;;
16133;SDS011;8172;45.018;5.972;2023-05-14T02:17:30;2.37;;;1.10;;
16133;SDS011;8172;45.018;5.972;2023-05-14T02:22:39;1.00;;;0.90;;
16133;SDS011;8172;45.018;5.972;2023-05-14T02:27:48;1.07;;;0.90;;
16133;SDS011;8172;45.018;5.972;2023-05-14T02:32:56;2.17;;;0.90;;
16133;SDS011;8172;45.018;5.972;2023-05-14T02:38:06;3.17;;;1.20;;
16133;SDS011;8172;45.018;5.972;2023-05-14T02:43:16;1.33;;;1.10;;
16133;SDS011;8172;45.018;5.972;2023-05-14T02:48:24;2.70;;;1.20;;
16133;SDS011;8172;45.018;5.972;2023-05-14T02:53:33;1.20;;;1.00;;
16133;SDS011;8172;45.018;5.972;2023-05-14T02:58:41;1.50;;;1.40;;
16133;SDS011;8172;45.018;5.972;2023-05-14T03:03:48;31.10;;;2.37;;
16133;SDS011;8172;45.018;5.972;2023-05-14T03:08:57;3.27;;;1.67;;
16133;SDS011;8172;45.018;5.972;2023-05-14T03:14:06;2.13;;;1.70;;
16133;SDS011;8172;45.018;5.972;2023-05-14T03:19:16;2.73;;;1.50;;
16133;SDS011;8172;45.018;5.972;2023-05-14T03:24:24;2.30;;;1.83;;
16133;SDS011;8172;45.018;5.972;2023-05-14T03:29:32;2.40;;;2.20;;
16133;SDS011;8172;45.018;5.972;2023-05-14T03:34:40;3.43;;;2.47;;
16133;SDS011;8172;45.018;5.972;2023-05-14T03:39:54;2.43;;;2.23;;
16133;SDS011;8172;45.018;5.972;2023-05-14T03:45:01;3.47;;;2.20;;
16133;SDS011;8172;45.018;5.972;2023-05-14T03:50:09;3.07;;;1.80;;
16133;SDS011;8172;45.018;5.972;2023-05-14T03:55:18;27.43;;;2.47;;
16133;SDS011;8172;45.018;5.972;2023-05-14T04:00:26;1.53;;;1.43;;
16133;SDS011;8172;45.018;5.972;2023-05-14T04:05:35;1.57;;;1.47;;
16133;SDS011;8172;45.018;5.972;2023-05-14T04:10:44;3.20;;;1.30;;
16133;SDS011;8172;45.018;5.972;2023-05-14T04:15:53;56.13;;;3.37;;
16133;SDS011;8172;45.018;5.972;2023-05-14T04:21:04;5.77;;;2.27;;
16133;SDS011;8172;45.018;5.972;2023-05-14T04:26:12;16.80;;;3.23;;
16133;SDS011;8172;45.018;5.972;2023-05-14T04:31:20;4.23;;;3.23;;
16133;SDS011;8172;45.018;5.972;2023-05-14T04:36:28;65.53;;;4.70;;
16133;SDS011;8172;45.018;5.972;2023-05-14T04:41:37;80.23;;;5.30;;
16133;SDS011;8172;45.018;5.972;2023-05-14T04:46:46;68.13;;;5.60;;
16133;SDS011;8172;45.018;5.972;2023-05-14T04:51:54;16.60;;;4.93;;
16133;SDS011;8172;45.018;5.972;2023-05-14T04:57:06;51.63;;;5.90;;
16133;SDS011;8172;45.018;5.972;2023-05-14T05:02:14;82.43;;;7.20;;
16133;SDS011;8172;45.018;5.972;2023-05-14T05:07:22;59.57;;;6.00;;
16133;SDS011;8172;45.018;5.972;2023-05-14T05:12:29;8.53;;;4.43;;
16133;SDS011;8172;45.018;5.972;2023-05-14T05:17:37;15.17;;;5.43;;
16133;SDS011;8172;45.018;5.972;2023-05-14T05:22:45;135.53;;;8.13;;
16133;SDS011;8172;45.018;5.972;2023-05-14T05:27:54;4.73;;;3.93;;
16133;SDS011;8172;45.018;5.972;2023-05-14T05:33:02;5.73;;;4.10;;
16133;SDS011;8172;45.018;5.972;2023-05-14T05:38:10;6.70;;;4.63;;
16133;SDS011;8172;45.018;5.972;2023-05-14T05:43:19;32.77;;;6.93;;
16133;SDS011;8172;45.018;5.972;2023-05-14T05:48:28;52.20;;;7.20;;
16133;SDS011;8172;45.018;5.972;2023-05-14T05:53:36;68.43;;;8.27;;
16133;SDS011;8172;45.018;5.972;2023-05-14T05:58:46;143.73;;;9.47;;
16133;SDS011;8172;45.018;5.972;2023-05-14T06:03:56;61.90;;;7.53;;
16133;SDS011;8172;45.018;5.972;2023-05-14T06:09:05;42.47;;;6.03;;
16133;SDS011;8172;45.018;5.972;2023-05-14T06:14:14;126.93;;;8.83;;
16133;SDS011;8172;45.018;5.972;2023-05-14T06:19:22;60.27;;;6.70;;
16133;SDS011;8172;45.018;5.972;2023-05-14T06:24:30;6.77;;;5.20;;
16133;SDS011;8172;45.018;5.972;2023-05-14T06:29:38;8.43;;;6.10;;
16133;SDS011;8172;45.018;5.972;2023-05-14T06:34:47;8.07;;;6.30;;
16133;SDS011;8172;45.018;5.972;2023-05-14T06:39:57;9.57;;;7.13;;
16133;SDS011;8172;45.018;5.972;2023-05-14T06:45:09;6.43;;;4.20;;
16133;SDS011;8172;45.018;5.972;2023-05-14T06:50:17;3.53;;;2.97;;
16133;SDS011;8172;45.018;5.972;2023-05-14T06:55:26;2.40;;;2.20;;
16133;SDS011;8172;45.018;5.972;2023-05-14T07:00:36;2.30;;;2.10;;
16133;SDS011;8172;45.018;5.972;2023-05-14T07:05:45;3.27;;;2.80;;
16133;SDS011;8172;45.018;5.972;2023-05-14T07:10:52;3.07;;;2.77;;
16133;SDS011;8172;45.018;5.972;2023-05-14T07:16:02;2.17;;;1.97;;
16133;SDS011;8172;45.018;5.972;2023-05-14T07:21:11;2.40;;;2.20;;
16133;SDS011;8172;45.018;5.972;2023-05-14T07:26:18;4.60;;;2.40;;
16133;SDS011;8172;45.018;5.972;2023-05-14T07:31:28;2.30;;;2.10;;
16133;SDS011;8172;45.018;5.972;2023-05-14T07:36:36;4.10;;;2.20;;
16133;SDS011;8172;45.018;5.972;2023-05-14T07:41:45;2.63;;;2.33;;
16133;SDS011;8172;45.018;5.972;2023-05-14T07:46:56;3.10;;;2.80;;
16133;SDS011;8172;45.018;5.972;2023-05-14T07:52:05;4.17;;;3.10;;
16133;SDS011;8172;45.018;5.972;2023-05-14T07:57:14;3.20;;;2.90;;
16133;SDS011;8172;45.018;5.972;2023-05-14T08:02:22;2.90;;;2.70;;
16133;SDS011;8172;45.018;5.972;2023-05-14T08:07:35;3.40;;;2.37;;
16133;SDS011;8172;45.018;5.972;2023-05-14T08:12:44;2.57;;;2.37;;
16133;SDS011;8172;45.018;5.972;2023-05-14T08:17:53;3.27;;;2.10;;
16133;SDS011;8172;45.018;5.972;2023-05-14T08:23:04;2.57;;;2.10;;
16133;SDS011;8172;45.018;5.972;2023-05-14T08:28:15;2.27;;;2.07;;
16133;SDS011;8172;45.018;5.972;2023-05-14T08:33:24;2.30;;;1.97;;
16133;SDS011;8172;45.018;5.972;2023-05-14T08:38:32;3.00;;;1.70;;
16133;SDS011;8172;45.018;5.972;2023-05-14T08:48:53;2.07;;;1.40;;
16133;SDS011;8172;45.018;5.972;2023-05-14T08:54:03;1.30;;;1.20;;
16133;SDS011;8172;45.018;5.972;2023-05-14T08:59:13;1.20;;;1.10;;
16133;SDS011;8172;45.018;5.972;2023-05-14T09:04:22;2.20;;;1.20;;
16133;SDS011;8172;45.018;5.972;2023-05-14T09:09:32;1.83;;;1.10;;
16133;SDS011;8172;45.018;5.972;2023-05-14T09:14:41;1.17;;;1.07;;
16133;SDS011;8172;45.018;5.972;2023-05-14T09:19:51;1.10;;;1.00;;
16133;SDS011;8172;45.018;5.972;2023-05-14T09:25:01;1.20;;;1.10;;
16133;SDS011;8172;45.018;5.972;2023-05-14T09:30:11;1.23;;;1.03;;
16133;SDS011;8172;45.018;5.972;2023-05-14T09:35:20;2.07;;;1.03;;
16133;SDS011;8172;45.018;5.972;2023-05-14T09:40:30;1.13;;;1.03;;
16133;SDS011;8172;45.018;5.972;2023-05-14T09:45:39;2.80;;;1.37;;
16133;SDS011;8172;45.018;5.972;2023-05-14T09:50:50;1.00;;;1.00;;
16133;SDS011;8172;45.018;5.972;2023-05-14T09:55:59;2.03;;;1.70;;
16133;SDS011;8172;45.018;5.972;2023-05-14T10:01:07;2.97;;;1.50;;
16133;SDS011;8172;45.018;5.972;2023-05-14T10:06:17;1.50;;;1.40;;
16133;SDS011;8172;45.018;5.972;2023-05-14T10:11:31;1.63;;;1.30;;
16133;SDS011;8172;45.018;5.972;2023-05-14T10:16:43;4.70;;;1.67;;
16133;SDS011;8172;45.018;5.972;2023-05-14T10:21:55;1.50;;;1.40;;
16133;SDS011;8172;45.018;5.972;2023-05-14T10:27:07;1.60;;;1.50;;
16133;SDS011;8172;45.018;5.972;2023-05-14T10:32:17;3.03;;;1.40;;
16133;SDS011;8172;45.018;5.972;2023-05-14T10:37:28;1.43;;;1.33;;
16133;SDS011;8172;45.018;5.972;2023-05-14T10:42:38;1.70;;;1.60;;
16133;SDS011;8172;45.018;5.972;2023-05-14T10:47:48;3.47;;;1.20;;
16133;SDS011;8172;45.018;5.972;2023-05-14T10:52:59;1.37;;;1.20;;
16133;SDS011;8172;45.018;5.972;2023-05-14T10:58:11;2.70;;;1.40;;
16133;SDS011;8172;45.018;5.972;2023-05-14T11:03:20;1.70;;;1.20;;
16133;SDS011;8172;45.018;5.972;2023-05-14T11:08:29;1.13;;;0.87;;
16133;SDS011;8172;45.018;5.972;2023-05-14T11:13:38;0.93;;;0.93;;
16133;SDS011;8172;45.018;5.972;2023-05-14T11:24:01;2.23;;;1.00;;
16133;SDS011;8172;45.018;5.972;2023-05-14T11:29:10;1.20;;;0.90;;
16133;SDS011;8172;45.018;5.972;2023-05-14T11:34:19;1.00;;;1.00;;
16133;SDS011;8172;45.018;5.972;2023-05-14T11:39:28;0.90;;;0.90;;
16133;SDS011;8172;45.018;5.972;2023-05-14T11:44:38;1.20;;;0.97;;
16133;SDS011;8172;45.018;5.972;2023-05-14T11:49:47;0.97;;;0.90;;
16133;SDS011;8172;45.018;5.972;2023-05-14T11:54:56;1.27;;;0.83;;
16133;SDS011;8172;45.018;5.972;2023-05-14T12:00:06;1.20;;;1.10;;
16133;SDS011;8172;45.018;5.972;2023-05-14T12:05:14;2.10;;;1.10;;
16133;SDS011;8172;45.018;5.972;2023-05-14T12:10:22;1.83;;;1.20;;
16133;SDS011;8172;45.018;5.972;2023-05-14T12:15:32;1.20;;;1.10;;
16133;SDS011;8172;45.018;5.972;2023-05-14T12:25:53;0.90;;;0.90;;
16133;SDS011;8172;45.018;5.972;2023-05-14T12:31:00;2.07;;;0.90;;
16133;SDS011;8172;45.018;5.972;2023-05-14T12:36:10;2.10;;;0.97;;
16133;SDS011;8172;45.018;5.972;2023-05-14T12:41:24;1.00;;;0.90;;
16133;SDS011;8172;45.018;5.972;2023-05-14T12:46:34;3.27;;;1.10;;
16133;SDS011;8172;45.018;5.972;2023-05-14T12:51:46;1.17;;;0.73;;
16133;SDS011;8172;45.018;5.972;2023-05-14T12:56:56;1.00;;;0.90;;
16133;SDS011;8172;45.018;5.972;2023-05-14T13:02:06;2.70;;;1.00;;
16133;SDS011;8172;45.018;5.972;2023-05-14T13:07:16;1.33;;;0.70;;
16133;SDS011;8172;45.018;5.972;2023-05-14T13:12:24;0.90;;;0.70;;
16133;SDS011;8172;45.018;5.972;2023-05-14T13:17:31;0.70;;;0.70;;
16133;SDS011;8172;45.018;5.972;2023-05-14T13:22:40;0.70;;;0.70;;
16133;SDS011;8172;45.018;5.972;2023-05-14T13:27:48;2.50;;;1.10;;
16133;SDS011;8172;45.018;5.972;2023-05-14T13:32:57;1.20;;;0.90;;
16133;SDS011;8172;45.018;5.972;2023-05-14T13:38:07;1.03;;;0.90;;
16133;SDS011;8172;45.018;5.972;2023-05-14T13:43:16;1.10;;;1.00;;
16133;SDS011;8172;45.018;5.972;2023-05-14T13:48:24;0.80;;;0.80;;
16133;SDS011;8172;45.018;5.972;2023-05-14T13:53:32;0.70;;;0.70;;
16133;SDS011;8172;45.018;5.972;2023-05-14T13:58:41;1.10;;;1.00;;
16133;SDS011;8172;45.018;5.972;2023-05-14T14:03:50;0.70;;;0.70;;
16133;SDS011;8172;45.018;5.972;2023-05-14T14:08:58;1.00;;;0.93;;
16133;SDS011;8172;45.018;5.972;2023-05-14T14:14:07;0.83;;;0.73;;
16133;SDS011;8172;45.018;5.972;2023-05-14T14:19:15;0.80;;;0.80;;
16133;SDS011;8172;45.018;5.972;2023-05-14T14:24:23;0.80;;;0.80;;
16133;SDS011;8172;45.018;5.972;2023-05-14T14:29:33;0.97;;;0.97;;
16133;SDS011;8172;45.018;5.972;2023-05-14T14:34:43;1.20;;;1.10;;
16133;SDS011;8172;45.018;5.972;2023-05-14T14:39:51;0.93;;;0.90;;
16133;SDS011;8172;45.018;5.972;2023-05-14T14:44:59;3.93;;;1.30;;
16133;SDS011;8172;45.018;5.972;2023-05-14T14:50:08;1.30;;;1.20;;
16133;SDS011;8172;45.018;5.972;2023-05-14T14:55:19;1.63;;;1.30;;
16133;SDS011;8172;45.018;5.972;2023-05-14T15:00:29;1.17;;;1.07;;
16133;SDS011;8172;45.018;5.972;2023-05-14T15:05:37;3.03;;;1.10;;
16133;SDS011;8172;45.018;5.972;2023-05-14T15:10:44;1.03;;;1.00;;
16133;SDS011;8172;45.018;5.972;2023-05-14T15:15:53;1.30;;;1.20;;
16133;SDS011;8172;45.018;5.972;2023-05-14T15:21:02;1.30;;;1.20;;
16133;SDS011;8172;45.018;5.972;2023-05-14T15:26:10;1.47;;;1.20;;
16133;SDS011;8172;45.018;5.972;2023-05-14T15:31:18;1.40;;;1.30;;
16133;SDS011;8172;45.018;5.972;2023-05-14T15:36:27;1.60;;;1.30;;
16133;SDS011;8172;45.018;5.972;2023-05-14T15:41:37;1.40;;;1.30;;
16133;SDS011;8172;45.018;5.972;2023-05-14T15:46:50;2.33;;;1.47;;
16133;SDS011;8172;45.018;5.972;2023-05-14T15:51:59;1.93;;;1.30;;
16133;SDS011;8172;45.018;5.972;2023-05-14T15:57:08;1.10;;;1.00;;
16133;SDS011;8172;45.018;5.972;2023-05-14T16:02:17;1.37;;;0.90;;
16133;SDS011;8172;45.018;5.972;2023-05-14T16:07:27;1.03;;;0.87;;
16133;SDS011;8172;45.018;5.972;2023-05-14T16:12:34;0.60;;;0.60;;
16133;SDS011;8172;45.018;5.972;2023-05-14T16:17:42;0.70;;;0.70;;
16133;SDS011;8172;45.018;5.972;2023-05-14T16:22:50;1.53;;;0.80;;
16133;SDS011;8172;45.018;5.972;2023-05-14T16:27:58;1.60;;;0.80;;
16133;SDS011;8172;45.018;5.972;2023-05-14T16:33:06;1.20;;;1.10;;
16133;SDS011;8172;45.018;5.972;2023-05-14T16:38:14;3.10;;;1.30;;
16133;SDS011;8172;45.018;5.972;2023-05-14T16:43:24;1.60;;;1.50;;
16133;SDS011;8172;45.018;5.972;2023-05-14T16:48:34;2.40;;;1.50;;
16133;SDS011;8172;45.018;5.972;2023-05-14T16:53:49;1.80;;;1.70;;
16133;SDS011;8172;45.018;5.972;2023-05-14T16:58:59;3.53;;;1.70;;
16133;SDS011;8172;45.018;5.972;2023-05-14T17:04:09;2.77;;;1.80;;
16133;SDS011;8172;45.018;5.972;2023-05-14T17:09:17;1.80;;;1.60;;
16133;SDS011;8172;45.018;5.972;2023-05-14T17:14:27;1.70;;;1.60;;
16133;SDS011;8172;45.018;5.972;2023-05-14T17:19:36;5.07;;;1.90;;
16133;SDS011;8172;45.018;5.972;2023-05-14T17:24:44;2.13;;;1.53;;
16133;SDS011;8172;45.018;5.972;2023-05-14T17:29:52;1.63;;;1.53;;
16133;SDS011;8172;45.018;5.972;2023-05-14T17:35:03;1.60;;;1.50;;
16133;SDS011;8172;45.018;5.972;2023-05-14T17:40:13;1.60;;;1.50;;
16133;SDS011;8172;45.018;5.972;2023-05-14T17:45:21;1.60;;;1.50;;
16133;SDS011;8172;45.018;5.972;2023-05-14T17:50:29;1.50;;;1.40;;
16133;SDS011;8172;45.018;5.972;2023-05-14T17:55:38;1.40;;;1.30;;
16133;SDS011;8172;45.018;5.972;2023-05-14T18:00:49;2.37;;;1.43;;
16133;SDS011;8172;45.018;5.972;2023-05-14T18:05:57;2.30;;;1.90;;
16133;SDS011;8172;45.018;5.972;2023-05-14T18:11:06;3.30;;;2.30;;
16133;SDS011;8172;45.018;5.972;2023-05-14T18:16:15;2.23;;;1.90;;
16133;SDS011;8172;45.018;5.972;2023-05-14T18:21:25;2.00;;;1.60;;
16133;SDS011;8172;45.018;5.972;2023-05-14T18:26:36;1.93;;;1.70;;
16133;SDS011;8172;45.018;5.972;2023-05-14T18:31:47;5.43;;;1.90;;
16133;SDS011;8172;45.018;5.972;2023-05-14T18:36:57;3.00;;;1.70;;
16133;SDS011;8172;45.018;5.972;2023-05-14T18:42:07;3.07;;;1.87;;
16133;SDS011;8172;45.018;5.972;2023-05-14T18:47:17;3.30;;;2.10;;
16133;SDS011;8172;45.018;5.972;2023-05-14T18:52:24;3.20;;;1.90;;
16133;SDS011;8172;45.018;5.972;2023-05-14T18:57:33;3.10;;;2.10;;
16133;SDS011;8172;45.018;5.972;2023-05-14T19:02:43;3.57;;;1.90;;
16133;SDS011;8172;45.018;5.972;2023-05-14T19:07:51;3.23;;;2.00;;
16133;SDS011;8172;45.018;5.972;2023-05-14T19:12:59;1.93;;;1.73;;
16133;SDS011;8172;45.018;5.972;2023-05-14T19:18:08;3.13;;;2.13;;
16133;SDS011;8172;45.018;5.972;2023-05-14T19:23:17;2.10;;;1.83;;
16133;SDS011;8172;45.018;5.972;2023-05-14T19:28:24;2.60;;;2.30;;
16133;SDS011;8172;45.018;5.972;2023-05-14T19:33:33;11.60;;;2.50;;
16133;SDS011;8172;45.018;5.972;2023-05-14T19:38:41;2.90;;;2.60;;
16133;SDS011;8172;45.018;5.972;2023-05-14T19:43:49;2.20;;;2.00;;
16133;SDS011;8172;45.018;5.972;2023-05-14T19:48:57;2.60;;;2.40;;
16133;SDS011;8172;45.018;5.972;2023-05-14T19:54:06;2.57;;;2.13;;
16133;SDS011;8172;45.018;5.972;2023-05-14T19:59:14;2.30;;;2.10;;
16133;SDS011;8172;45.018;5.972;2023-05-14T20:04:23;1.90;;;1.70;;
16133;SDS011;8172;45.018;5.972;2023-05-14T20:09:32;4.00;;;1.97;;
16133;SDS011;8172;45.018;5.972;2023-05-14T20:14:40;2.03;;;1.87;;
16133;SDS011;8172;45.018;5.972;2023-05-14T20:19:50;2.13;;;1.80;;
16133;SDS011;8172;45.018;5.972;2023-05-14T20:24:58;2.67;;;2.40;;
16133;SDS011;8172;45.018;5.972;2023-05-14T20:30:06;3.37;;;3.07;;
16133;SDS011;8172;45.018;5.972;2023-05-14T20:35:16;2.27;;;2.03;;
16133;SDS011;8172;45.018;5.972;2023-05-14T20:40:24;2.00;;;1.73;;
16133;SDS011;8172;45.018;5.972;2023-05-14T20:45:32;2.00;;;1.80;;
16133;SDS011;8172;45.018;5.972;2023-05-14T20:50:40;1.80;;;1.70;;
16133;SDS011;8172;45.018;5.972;2023-05-14T20:55:49;2.90;;;1.70;;
16133;SDS011;8172;45.018;5.972;2023-05-14T21:00:57;3.93;;;2.73;;
16133;SDS011;8172;45.018;5.972;2023-05-14T21:06:10;6.07;;;3.57;;
16133;SDS011;8172;45.018;5.972;2023-05-14T21:11:18;27.77;;;15.00;;
16133;SDS011;8172;45.018;5.972;2023-05-14T21:16:29;13.50;;;7.60;;
16133;SDS011;8172;45.018;5.972;2023-05-14T21:21:38;9.40;;;6.27;;
16133;SDS011;8172;45.018;5.972;2023-05-14T21:26:47;8.57;;;6.13;;
16133;SDS011;8172;45.018;5.972;2023-05-14T21:31:57;8.90;;;6.90;;
16133;SDS011;8172;45.018;5.972;2023-05-14T21:37:05;5.93;;;4.70;;
16133;SDS011;8172;45.018;5.972;2023-05-14T21:42:16;2.50;;;2.00;;
16133;SDS011;8172;45.018;5.972;2023-05-14T21:47:25;2.10;;;1.70;;
16133;SDS011;8172;45.018;5.972;2023-05-14T21:52:33;3.00;;;1.60;;
16133;SDS011;8172;45.018;5.972;2023-05-14T21:57:42;6.83;;;2.60;;
16133;SDS011;8172;45.018;5.972;2023-05-14T22:02:51;3.20;;;2.83;;
16133;SDS011;8172;45.018;5.972;2023-05-14T22:08:01;3.50;;;3.20;;
16133;SDS011;8172;45.018;5.972;2023-05-14T22:13:08;10.20;;;3.90;;
16133;SDS011;8172;45.018;5.972;2023-05-14T22:18:17;6.20;;;4.20;;
16133;SDS011;8172;45.018;5.972;2023-05-14T22:23:25;4.53;;;4.13;;
16133;SDS011;8172;45.018;5.972;2023-05-14T22:28:34;4.70;;;4.20;;
16133;SDS011;8172;45.018;5.972;2023-05-14T22:33:46;5.37;;;3.97;;
16133;SDS011;8172;45.018;5.972;2023-05-14T22:38:56;4.57;;;4.17;;
16133;SDS011;8172;45.018;5.972;2023-05-14T22:44:03;4.20;;;3.80;;
16133;SDS011;8172;45.018;5.972;2023-05-14T22:49:12;3.00;;;2.70;;
16133;SDS011;8172;45.018;5.972;2023-05-14T22:54:20;6.47;;;4.07;;
16133;SDS011;8172;45.018;5.972;2023-05-14T22:59:27;3.50;;;3.20;;
16133;SDS011;8172;45.018;5.972;2023-05-14T23:04:35;4.90;;;4.40;;
16133;SDS011;8172;45.018;5.972;2023-05-14T23:09:44;5.50;;;3.90;;
16133;SDS011;8172;45.018;5.972;2023-05-14T23:14:51;4.20;;;3.80;;
16133;SDS011;8172;45.018;5.972;2023-05-14T23:19:59;4.67;;;2.80;;
16133;SDS011;8172;45.018;5.972;2023-05-14T23:25:08;2.80;;;2.23;;
16133;SDS011;8172;45.018;5.972;2023-05-14T23:30:16;3.03;;;2.40;;
16133;SDS011;8172;45.018;5.972;2023-05-14T23:35:24;1.90;;;1.80;;
16133;SDS011;8172;45.018;5.972;2023-05-14T23:40:31;1.90;;;1.70;;
16133;SDS011;8172;45.018;5.972;2023-05-14T23:45:40;1.90;;;1.80;;
16133;SDS011;8172;45.018;5.972;2023-05-14T23:50:49;2.60;;;2.40;;
16133;SDS011;8172;45.018;5.972;2023-05-14T23:55:58;3.10;;;2.03;;
